sensor_id;sensor_type;location;lat;lon;timestamp;P1;durP1;ratioP1;P2;durP2;ratioP2
59960;SDS011;55902;-37.980;-63.602;2024-01-06T00:01:50;7.00;;;1.75;;
59960;SDS011;55902;-37.980;-63.602;2024-01-06T00:04:18;5.32;;;2.40;;
59960;SDS011;55902;-37.980;-63.602;2024-01-06T00:06:48;4.05;;;1.50;;
59960;SDS011;55902;-37.980;-63.602;2024-01-06T00:09:15;2.03;;;1.10;;
59960;SDS011;55902;-37.980;-63.602;2024-01-06T00:11:42;7.35;;;1.90;;
59960;SDS011;55902;-37.980;-63.602;2024-01-06T00:14:09;4.35;;;1.58;;
59960;SDS011;55902;-37.980;-63.602;2024-01-06T00:16:36;2.70;;;1.42;;
59960;SDS011;55902;-37.980;-63.602;2024-01-06T00:19:03;5.05;;;1.67;;
59960;SDS011;55902;-37.980;-63.602;2024-01-06T00:21:33;1.98;;;1.30;;
59960;SDS011;55902;-37.980;-63.602;2024-01-06T00:24:00;4.38;;;1.77;;
59960;SDS011;55902;-37.980;-63.602;2024-01-06T00:26:27;4.20;;;1.50;;
59960;SDS011;55902;-37.980;-63.602;2024-01-06T00:28:57;10.23;;;3.20;;
59960;SDS011;55902;-37.980;-63.602;2024-01-06T00:31:24;12.73;;;3.53;;
59960;SDS011;55902;-37.980;-63.602;2024-01-06T00:33:51;6.95;;;2.33;;
59960;SDS011;55902;-37.980;-63.602;2024-01-06T00:36:19;16.30;;;1.98;;
59960;SDS011;55902;-37.980;-63.602;2024-01-06T00:38:46;8.75;;;2.00;;
59960;SDS011;55902;-37.980;-63.602;2024-01-06T00:41:13;4.90;;;2.80;;
59960;SDS011;55902;-37.980;-63.602;2024-01-06T00:43:40;2.95;;;1.15;;
59960;SDS011;55902;-37.980;-63.602;2024-01-06T00:46:08;2.95;;;1.02;;
59960;SDS011;55902;-37.980;-63.602;2024-01-06T00:48:35;2.47;;;1.25;;
59960;SDS011;55902;-37.980;-63.602;2024-01-06T00:51:02;2.85;;;1.10;;
59960;SDS011;55902;-37.980;-63.602;2024-01-06T00:53:29;5.10;;;1.30;;
59960;SDS011;55902;-37.980;-63.602;2024-01-06T00:55:56;4.18;;;1.27;;
59960;SDS011;55902;-37.980;-63.602;2024-01-06T00:58:23;2.20;;;0.80;;
59960;SDS011;55902;-37.980;-63.602;2024-01-06T01:00:50;2.15;;;0.80;;
59960;SDS011;55902;-37.980;-63.602;2024-01-06T01:03:17;3.50;;;0.85;;
59960;SDS011;55902;-37.980;-63.602;2024-01-06T01:05:43;5.40;;;0.85;;
59960;SDS011;55902;-37.980;-63.602;2024-01-06T01:08:10;2.53;;;0.90;;
59960;SDS011;55902;-37.980;-63.602;2024-01-06T01:10:37;2.97;;;0.70;;
59960;SDS011;55902;-37.980;-63.602;2024-01-06T01:13:04;2.85;;;0.77;;
59960;SDS011;55902;-37.980;-63.602;2024-01-06T01:15:34;2.25;;;0.80;;
59960;SDS011;55902;-37.980;-63.602;2024-01-06T01:18:01;4.60;;;1.30;;
59960;SDS011;55902;-37.980;-63.602;2024-01-06T01:20:28;4.50;;;1.50;;
59960;SDS011;55902;-37.980;-63.602;2024-01-06T01:22:55;3.35;;;1.30;;
59960;SDS011;55902;-37.980;-63.602;2024-01-06T01:25:22;2.78;;;0.90;;
59960;SDS011;55902;-37.980;-63.602;2024-01-06T01:27:49;4.13;;;1.00;;
59960;SDS011;55902;-37.980;-63.602;2024-01-06T01:30:15;1.70;;;0.82;;
59960;SDS011;55902;-37.980;-63.602;2024-01-06T01:32:42;2.65;;;1.00;;
59960;SDS011;55902;-37.980;-63.602;2024-01-06T01:35:09;3.00;;;0.80;;
59960;SDS011;55902;-37.980;-63.602;2024-01-06T01:37:36;3.40;;;0.70;;
59960;SDS011;55902;-37.980;-63.602;2024-01-06T01:40:03;1.45;;;0.80;;
59960;SDS011;55902;-37.980;-63.602;2024-01-06T01:42:31;2.45;;;0.80;;
59960;SDS011;55902;-37.980;-63.602;2024-01-06T01:44:58;3.15;;;1.10;;
59960;SDS011;55902;-37.980;-63.602;2024-01-06T01:47:25;5.70;;;2.33;;
59960;SDS011;55902;-37.980;-63.602;2024-01-06T01:49:53;3.53;;;1.65;;
59960;SDS011;55902;-37.980;-63.602;2024-01-06T01:52:22;2.42;;;1.00;;
59960;SDS011;55902;-37.980;-63.602;2024-01-06T01:54:49;3.40;;;0.80;;
59960;SDS011;55902;-37.980;-63.602;2024-01-06T01:57:17;1.85;;;0.70;;
59960;SDS011;55902;-37.980;-63.602;2024-01-06T01:59:44;2.55;;;0.88;;
59960;SDS011;55902;-37.980;-63.602;2024-01-06T02:02:11;2.60;;;1.25;;
59960;SDS011;55902;-37.980;-63.602;2024-01-06T02:04:38;2.47;;;1.10;;
59960;SDS011;55902;-37.980;-63.602;2024-01-06T02:07:05;2.00;;;0.90;;
59960;SDS011;55902;-37.980;-63.602;2024-01-06T02:09:33;2.22;;;0.90;;
59960;SDS011;55902;-37.980;-63.602;2024-01-06T02:11:59;2.03;;;1.00;;
59960;SDS011;55902;-37.980;-63.602;2024-01-06T02:14:26;1.88;;;0.90;;
59960;SDS011;55902;-37.980;-63.602;2024-01-06T02:16:54;1.35;;;0.70;;
59960;SDS011;55902;-37.980;-63.602;2024-01-06T02:19:21;1.70;;;0.80;;
59960;SDS011;55902;-37.980;-63.602;2024-01-06T02:21:48;2.67;;;0.90;;
59960;SDS011;55902;-37.980;-63.602;2024-01-06T02:24:19;2.10;;;0.80;;
59960;SDS011;55902;-37.980;-63.602;2024-01-06T02:26:46;3.10;;;1.80;;
59960;SDS011;55902;-37.980;-63.602;2024-01-06T02:29:14;2.85;;;1.60;;
59960;SDS011;55902;-37.980;-63.602;2024-01-06T02:31:41;3.03;;;1.35;;
59960;SDS011;55902;-37.980;-63.602;2024-01-06T02:34:08;2.38;;;1.20;;
59960;SDS011;55902;-37.980;-63.602;2024-01-06T02:36:38;3.35;;;1.35;;
59960;SDS011;55902;-37.980;-63.602;2024-01-06T02:39:05;2.03;;;1.00;;
59960;SDS011;55902;-37.980;-63.602;2024-01-06T02:41:32;2.13;;;1.00;;
59960;SDS011;55902;-37.980;-63.602;2024-01-06T02:43:59;3.17;;;1.25;;
59960;SDS011;55902;-37.980;-63.602;2024-01-06T02:46:28;2.55;;;1.60;;
59960;SDS011;55902;-37.980;-63.602;2024-01-06T02:48:55;4.10;;;1.00;;
59960;SDS011;55902;-37.980;-63.602;2024-01-06T02:51:22;1.95;;;0.70;;
59960;SDS011;55902;-37.980;-63.602;2024-01-06T02:53:49;1.75;;;0.60;;
59960;SDS011;55902;-37.980;-63.602;2024-01-06T02:56:15;4.13;;;0.73;;
59960;SDS011;55902;-37.980;-63.602;2024-01-06T02:58:42;6.25;;;2.53;;
59960;SDS011;55902;-37.980;-63.602;2024-01-06T03:01:11;5.05;;;1.60;;
59960;SDS011;55902;-37.980;-63.602;2024-01-06T03:03:38;3.05;;;1.40;;
59960;SDS011;55902;-37.980;-63.602;2024-01-06T03:06:05;1.75;;;0.90;;
59960;SDS011;55902;-37.980;-63.602;2024-01-06T03:08:32;5.32;;;1.10;;
59960;SDS011;55902;-37.980;-63.602;2024-01-06T03:11:00;9.00;;;1.60;;
59960;SDS011;55902;-37.980;-63.602;2024-01-06T03:13:31;5.80;;;1.40;;
59960;SDS011;55902;-37.980;-63.602;2024-01-06T03:16:01;7.07;;;1.17;;
59960;SDS011;55902;-37.980;-63.602;2024-01-06T03:18:31;3.10;;;1.00;;
59960;SDS011;55902;-37.980;-63.602;2024-01-06T03:20:57;2.08;;;1.00;;
59960;SDS011;55902;-37.980;-63.602;2024-01-06T03:23:24;1.65;;;0.77;;
59960;SDS011;55902;-37.980;-63.602;2024-01-06T03:25:51;1.20;;;0.80;;
59960;SDS011;55902;-37.980;-63.602;2024-01-06T03:28:18;4.15;;;1.00;;
59960;SDS011;55902;-37.980;-63.602;2024-01-06T03:30:45;1.42;;;0.77;;
59960;SDS011;55902;-37.980;-63.602;2024-01-06T03:33:12;1.45;;;0.80;;
59960;SDS011;55902;-37.980;-63.602;2024-01-06T03:35:39;2.15;;;0.60;;
59960;SDS011;55902;-37.980;-63.602;2024-01-06T03:44:50;1.60;;;0.80;;
59960;SDS011;55902;-37.980;-63.602;2024-01-06T04:00:26;3.42;;;1.00;;
59960;SDS011;55902;-37.980;-63.602;2024-01-06T04:02:53;8.32;;;1.58;;
59960;SDS011;55902;-37.980;-63.602;2024-01-06T04:05:20;3.42;;;0.90;;
59960;SDS011;55902;-37.980;-63.602;2024-01-06T04:07:50;2.75;;;0.70;;
59960;SDS011;55902;-37.980;-63.602;2024-01-06T04:10:17;2.50;;;0.80;;
59960;SDS011;55902;-37.980;-63.602;2024-01-06T04:12:44;2.65;;;0.82;;
59960;SDS011;55902;-37.980;-63.602;2024-01-06T04:15:11;3.65;;;0.90;;
59960;SDS011;55902;-37.980;-63.602;2024-01-06T04:17:38;2.78;;;1.25;;
59960;SDS011;55902;-37.980;-63.602;2024-01-06T04:20:05;2.97;;;0.90;;
59960;SDS011;55902;-37.980;-63.602;2024-01-06T04:22:32;3.00;;;0.90;;
59960;SDS011;55902;-37.980;-63.602;2024-01-06T04:24:59;5.03;;;1.17;;
59960;SDS011;55902;-37.980;-63.602;2024-01-06T04:27:26;1.73;;;0.77;;
59960;SDS011;55902;-37.980;-63.602;2024-01-06T04:29:53;3.13;;;1.10;;
59960;SDS011;55902;-37.980;-63.602;2024-01-06T04:32:20;2.05;;;0.88;;
59960;SDS011;55902;-37.980;-63.602;2024-01-06T04:34:47;1.10;;;0.73;;
59960;SDS011;55902;-37.980;-63.602;2024-01-06T04:37:14;1.80;;;0.80;;
59960;SDS011;55902;-37.980;-63.602;2024-01-06T04:39:41;1.65;;;0.90;;
59960;SDS011;55902;-37.980;-63.602;2024-01-06T04:42:08;3.17;;;0.98;;
59960;SDS011;55902;-37.980;-63.602;2024-01-06T04:44:35;2.30;;;0.80;;
59960;SDS011;55902;-37.980;-63.602;2024-01-06T04:47:02;1.67;;;0.90;;
59960;SDS011;55902;-37.980;-63.602;2024-01-06T04:49:29;1.85;;;0.90;;
59960;SDS011;55902;-37.980;-63.602;2024-01-06T04:51:56;2.10;;;0.88;;
59960;SDS011;55902;-37.980;-63.602;2024-01-06T04:54:22;1.75;;;0.80;;
59960;SDS011;55902;-37.980;-63.602;2024-01-06T04:56:49;7.72;;;1.10;;
59960;SDS011;55902;-37.980;-63.602;2024-01-06T04:59:16;1.00;;;0.80;;
59960;SDS011;55902;-37.980;-63.602;2024-01-06T05:01:43;1.30;;;0.90;;
59960;SDS011;55902;-37.980;-63.602;2024-01-06T05:04:10;1.95;;;0.93;;
59960;SDS011;55902;-37.980;-63.602;2024-01-06T05:06:40;2.10;;;0.90;;
59960;SDS011;55902;-37.980;-63.602;2024-01-06T05:12:30;1.20;;;0.80;;
59960;SDS011;55902;-37.980;-63.602;2024-01-06T05:14:56;2.88;;;0.90;;
59960;SDS011;55902;-37.980;-63.602;2024-01-06T05:17:23;1.65;;;0.90;;
59960;SDS011;55902;-37.980;-63.602;2024-01-06T05:19:50;3.50;;;1.10;;
59960;SDS011;55902;-37.980;-63.602;2024-01-06T05:22:17;2.53;;;1.10;;
59960;SDS011;55902;-37.980;-63.602;2024-01-06T05:24:44;4.05;;;1.98;;
59960;SDS011;55902;-37.980;-63.602;2024-01-06T05:27:11;1.80;;;1.20;;
59960;SDS011;55902;-37.980;-63.602;2024-01-06T05:29:38;1.42;;;1.00;;
59960;SDS011;55902;-37.980;-63.602;2024-01-06T05:32:08;2.85;;;1.00;;
59960;SDS011;55902;-37.980;-63.602;2024-01-06T05:34:35;2.38;;;0.90;;
59960;SDS011;55902;-37.980;-63.602;2024-01-06T05:37:02;2.50;;;0.90;;
59960;SDS011;55902;-37.980;-63.602;2024-01-06T05:39:29;2.33;;;0.90;;
59960;SDS011;55902;-37.980;-63.602;2024-01-06T05:41:56;1.80;;;0.85;;
59960;SDS011;55902;-37.980;-63.602;2024-01-06T05:44:23;2.03;;;0.90;;
59960;SDS011;55902;-37.980;-63.602;2024-01-06T05:46:50;2.50;;;1.20;;
59960;SDS011;55902;-37.980;-63.602;2024-01-06T05:49:17;1.10;;;0.90;;
59960;SDS011;55902;-37.980;-63.602;2024-01-06T05:51:44;1.83;;;0.80;;
59960;SDS011;55902;-37.980;-63.602;2024-01-06T05:57:34;1.83;;;0.80;;
59960;SDS011;55902;-37.980;-63.602;2024-01-06T06:00:02;3.47;;;0.90;;
59960;SDS011;55902;-37.980;-63.602;2024-01-06T06:02:29;2.42;;;0.98;;
59960;SDS011;55902;-37.980;-63.602;2024-01-06T06:04:57;1.73;;;0.90;;
59960;SDS011;55902;-37.980;-63.602;2024-01-06T06:14:46;1.60;;;1.10;;
59960;SDS011;55902;-37.980;-63.602;2024-01-06T06:17:13;1.40;;;0.98;;
59960;SDS011;55902;-37.980;-63.602;2024-01-06T06:19:40;2.58;;;1.00;;
59960;SDS011;55902;-37.980;-63.602;2024-01-06T06:22:07;2.30;;;0.90;;
59960;SDS011;55902;-37.980;-63.602;2024-01-06T06:24:34;1.50;;;0.98;;
59960;SDS011;55902;-37.980;-63.602;2024-01-06T06:27:01;2.00;;;1.00;;
59960;SDS011;55902;-37.980;-63.602;2024-01-06T06:29:28;1.33;;;1.00;;
59960;SDS011;55902;-37.980;-63.602;2024-01-06T06:31:55;2.28;;;0.98;;
59960;SDS011;55902;-37.980;-63.602;2024-01-06T06:34:22;1.95;;;0.90;;
59960;SDS011;55902;-37.980;-63.602;2024-01-06T06:36:49;1.88;;;0.93;;
59960;SDS011;55902;-37.980;-63.602;2024-01-06T06:39:16;1.48;;;0.90;;
59960;SDS011;55902;-37.980;-63.602;2024-01-06T06:41:43;1.10;;;0.93;;
59960;SDS011;55902;-37.980;-63.602;2024-01-06T06:54:17;1.42;;;1.00;;
59960;SDS011;55902;-37.980;-63.602;2024-01-06T06:56:44;1.27;;;0.90;;
59960;SDS011;55902;-37.980;-63.602;2024-01-06T06:59:11;3.13;;;1.13;;
59960;SDS011;55902;-37.980;-63.602;2024-01-06T07:01:38;3.88;;;1.10;;
59960;SDS011;55902;-37.980;-63.602;2024-01-06T07:04:05;6.40;;;1.25;;
59960;SDS011;55902;-37.980;-63.602;2024-01-06T07:06:32;8.07;;;1.50;;
59960;SDS011;55902;-37.980;-63.602;2024-01-06T07:08:59;7.55;;;2.10;;
59960;SDS011;55902;-37.980;-63.602;2024-01-06T07:11:26;11.60;;;1.90;;
59960;SDS011;55902;-37.980;-63.602;2024-01-06T07:13:53;13.77;;;2.08;;
59960;SDS011;55902;-37.980;-63.602;2024-01-06T07:16:20;16.13;;;2.45;;
59960;SDS011;55902;-37.980;-63.602;2024-01-06T07:18:47;6.80;;;1.60;;
59960;SDS011;55902;-37.980;-63.602;2024-01-06T07:21:14;8.35;;;1.73;;
59960;SDS011;55902;-37.980;-63.602;2024-01-06T07:23:41;2.53;;;1.13;;
59960;SDS011;55902;-37.980;-63.602;2024-01-06T07:26:08;2.80;;;1.08;;
59960;SDS011;55902;-37.980;-63.602;2024-01-06T07:28:35;1.85;;;1.00;;
59960;SDS011;55902;-37.980;-63.602;2024-01-06T07:31:02;1.63;;;0.90;;
59960;SDS011;55902;-37.980;-63.602;2024-01-06T07:33:30;3.92;;;1.05;;
59960;SDS011;55902;-37.980;-63.602;2024-01-06T07:35:57;1.83;;;0.98;;
59960;SDS011;55902;-37.980;-63.602;2024-01-06T07:38:24;2.85;;;0.90;;
59960;SDS011;55902;-37.980;-63.602;2024-01-06T07:40:51;1.58;;;1.00;;
59960;SDS011;55902;-37.980;-63.602;2024-01-06T07:43:20;1.50;;;1.00;;
59960;SDS011;55902;-37.980;-63.602;2024-01-06T07:45:46;2.50;;;1.02;;
59960;SDS011;55902;-37.980;-63.602;2024-01-06T07:48:14;2.70;;;1.00;;
59960;SDS011;55902;-37.980;-63.602;2024-01-06T07:50:41;2.13;;;1.00;;
59960;SDS011;55902;-37.980;-63.602;2024-01-06T07:53:08;2.35;;;0.80;;
59960;SDS011;55902;-37.980;-63.602;2024-01-06T07:55:35;1.73;;;1.00;;
59960;SDS011;55902;-37.980;-63.602;2024-01-06T07:58:03;2.20;;;0.93;;
59960;SDS011;55902;-37.980;-63.602;2024-01-06T08:00:30;2.17;;;0.90;;
59960;SDS011;55902;-37.980;-63.602;2024-01-06T08:02:57;1.38;;;0.80;;
59960;SDS011;55902;-37.980;-63.602;2024-01-06T08:05:24;1.60;;;0.90;;
59960;SDS011;55902;-37.980;-63.602;2024-01-06T08:07:51;1.42;;;0.90;;
59960;SDS011;55902;-37.980;-63.602;2024-01-06T08:10:18;1.77;;;0.90;;
59960;SDS011;55902;-37.980;-63.602;2024-01-06T08:12:46;2.58;;;1.00;;
59960;SDS011;55902;-37.980;-63.602;2024-01-06T08:18:35;1.88;;;0.90;;
59960;SDS011;55902;-37.980;-63.602;2024-01-06T08:21:02;1.00;;;0.90;;
59960;SDS011;55902;-37.980;-63.602;2024-01-06T08:23:29;1.77;;;0.90;;
59960;SDS011;55902;-37.980;-63.602;2024-01-06T08:25:56;1.95;;;1.10;;
59960;SDS011;55902;-37.980;-63.602;2024-01-06T08:28:24;1.48;;;0.90;;
59960;SDS011;55902;-37.980;-63.602;2024-01-06T08:30:51;1.40;;;1.00;;
59960;SDS011;55902;-37.980;-63.602;2024-01-06T08:33:17;1.95;;;1.00;;
59960;SDS011;55902;-37.980;-63.602;2024-01-06T08:35:45;1.45;;;0.90;;
59960;SDS011;55902;-37.980;-63.602;2024-01-06T08:38:12;2.20;;;0.90;;
59960;SDS011;55902;-37.980;-63.602;2024-01-06T08:40:39;1.20;;;1.00;;
59960;SDS011;55902;-37.980;-63.602;2024-01-06T08:43:06;1.55;;;0.90;;
59960;SDS011;55902;-37.980;-63.602;2024-01-06T08:48:38;2.67;;;1.08;;
59960;SDS011;55902;-37.980;-63.602;2024-01-06T08:51:05;1.50;;;1.00;;
59960;SDS011;55902;-37.980;-63.602;2024-01-06T08:53:35;1.15;;;1.00;;
59960;SDS011;55902;-37.980;-63.602;2024-01-06T08:56:02;2.63;;;0.93;;
59960;SDS011;55902;-37.980;-63.602;2024-01-06T09:08:37;2.17;;;1.00;;
59960;SDS011;55902;-37.980;-63.602;2024-01-06T09:11:04;2.72;;;1.00;;
59960;SDS011;55902;-37.980;-63.602;2024-01-06T09:13:31;1.13;;;1.00;;
59960;SDS011;55902;-37.980;-63.602;2024-01-06T09:15:58;4.00;;;2.20;;
59960;SDS011;55902;-37.980;-63.602;2024-01-06T09:18:26;1.38;;;1.10;;
59960;SDS011;55902;-37.980;-63.602;2024-01-06T09:20:53;2.45;;;1.10;;
59960;SDS011;55902;-37.980;-63.602;2024-01-06T09:23:22;3.50;;;1.10;;
59960;SDS011;55902;-37.980;-63.602;2024-01-06T09:25:49;1.48;;;1.00;;
59960;SDS011;55902;-37.980;-63.602;2024-01-06T09:28:17;2.42;;;0.98;;
59960;SDS011;55902;-37.980;-63.602;2024-01-06T09:30:46;1.80;;;1.10;;
59960;SDS011;55902;-37.980;-63.602;2024-01-06T09:33:13;1.38;;;1.00;;
59960;SDS011;55902;-37.980;-63.602;2024-01-06T09:35:43;1.90;;;1.10;;
59960;SDS011;55902;-37.980;-63.602;2024-01-06T09:38:10;1.38;;;1.13;;
59960;SDS011;55902;-37.980;-63.602;2024-01-06T09:43:59;1.60;;;1.00;;
59960;SDS011;55902;-37.980;-63.602;2024-01-06T09:46:27;2.17;;;1.08;;
59960;SDS011;55902;-37.980;-63.602;2024-01-06T09:48:56;2.00;;;1.00;;
59960;SDS011;55902;-37.980;-63.602;2024-01-06T09:51:24;2.28;;;1.10;;
59960;SDS011;55902;-37.980;-63.602;2024-01-06T09:56:33;1.33;;;1.00;;
59960;SDS011;55902;-37.980;-63.602;2024-01-06T09:59:01;5.85;;;1.42;;
59960;SDS011;55902;-37.980;-63.602;2024-01-06T10:01:29;2.60;;;1.00;;
59960;SDS011;55902;-37.980;-63.602;2024-01-06T10:03:56;1.50;;;1.00;;
59960;SDS011;55902;-37.980;-63.602;2024-01-06T10:06:23;3.50;;;1.00;;
59960;SDS011;55902;-37.980;-63.602;2024-01-06T10:08:51;1.13;;;1.00;;
59960;SDS011;55902;-37.980;-63.602;2024-01-06T10:11:19;1.48;;;1.00;;
59960;SDS011;55902;-37.980;-63.602;2024-01-06T10:13:49;2.30;;;1.23;;
59960;SDS011;55902;-37.980;-63.602;2024-01-06T10:16:16;1.50;;;0.98;;
59960;SDS011;55902;-37.980;-63.602;2024-01-06T10:18:44;1.17;;;0.95;;
59960;SDS011;55902;-37.980;-63.602;2024-01-06T10:21:12;2.00;;;1.00;;
59960;SDS011;55902;-37.980;-63.602;2024-01-06T10:23:42;2.30;;;0.90;;
59960;SDS011;55902;-37.980;-63.602;2024-01-06T10:26:14;2.17;;;1.00;;
59960;SDS011;55902;-37.980;-63.602;2024-01-06T10:28:41;1.75;;;1.00;;
59960;SDS011;55902;-37.980;-63.602;2024-01-06T10:31:08;1.70;;;1.33;;
59960;SDS011;55902;-37.980;-63.602;2024-01-06T10:33:35;4.60;;;1.00;;
59960;SDS011;55902;-37.980;-63.602;2024-01-06T10:36:02;1.90;;;0.98;;
59960;SDS011;55902;-37.980;-63.602;2024-01-06T10:38:30;1.33;;;1.00;;
59960;SDS011;55902;-37.980;-63.602;2024-01-06T10:41:00;2.15;;;1.10;;
59960;SDS011;55902;-37.980;-63.602;2024-01-06T10:43:33;1.52;;;0.90;;
59960;SDS011;55902;-37.980;-63.602;2024-01-06T10:46:03;1.52;;;0.88;;
59960;SDS011;55902;-37.980;-63.602;2024-01-06T10:48:34;3.35;;;1.08;;
59960;SDS011;55902;-37.980;-63.602;2024-01-06T10:51:04;3.28;;;1.10;;
59960;SDS011;55902;-37.980;-63.602;2024-01-06T10:53:34;1.73;;;0.90;;
59960;SDS011;55902;-37.980;-63.602;2024-01-06T10:56:05;1.55;;;0.90;;
59960;SDS011;55902;-37.980;-63.602;2024-01-06T10:58:40;2.70;;;1.00;;
59960;SDS011;55902;-37.980;-63.602;2024-01-06T11:01:20;1.92;;;0.90;;
59960;SDS011;55902;-37.980;-63.602;2024-01-06T11:03:50;1.65;;;0.90;;
59960;SDS011;55902;-37.980;-63.602;2024-01-06T11:06:18;1.80;;;1.00;;
59960;SDS011;55902;-37.980;-63.602;2024-01-06T11:09:06;2.80;;;0.90;;
59960;SDS011;55902;-37.980;-63.602;2024-01-06T11:11:42;3.60;;;0.90;;
59960;SDS011;55902;-37.980;-63.602;2024-01-06T11:14:19;2.00;;;0.80;;
59960;SDS011;55902;-37.980;-63.602;2024-01-06T11:16:51;1.55;;;0.88;;
59960;SDS011;55902;-37.980;-63.602;2024-01-06T11:22:19;3.70;;;0.90;;
59960;SDS011;55902;-37.980;-63.602;2024-01-06T11:24:50;1.65;;;0.88;;
59960;SDS011;55902;-37.980;-63.602;2024-01-06T11:27:19;1.92;;;0.80;;
59960;SDS011;55902;-37.980;-63.602;2024-01-06T11:29:48;3.05;;;0.90;;
59960;SDS011;55902;-37.980;-63.602;2024-01-06T11:34:56;2.78;;;0.95;;
59960;SDS011;55902;-37.980;-63.602;2024-01-06T11:40:10;2.00;;;0.90;;
59960;SDS011;55902;-37.980;-63.602;2024-01-06T11:42:46;2.33;;;0.90;;
59960;SDS011;55902;-37.980;-63.602;2024-01-06T11:45:14;2.05;;;0.90;;
59960;SDS011;55902;-37.980;-63.602;2024-01-06T11:47:43;2.20;;;0.93;;
59960;SDS011;55902;-37.980;-63.602;2024-01-06T11:50:14;3.55;;;1.00;;
59960;SDS011;55902;-37.980;-63.602;2024-01-06T11:52:42;2.15;;;0.80;;
59960;SDS011;55902;-37.980;-63.602;2024-01-06T11:55:10;3.28;;;1.00;;
59960;SDS011;55902;-37.980;-63.602;2024-01-06T11:57:38;3.83;;;0.90;;
59960;SDS011;55902;-37.980;-63.602;2024-01-06T12:00:05;4.35;;;1.20;;
59960;SDS011;55902;-37.980;-63.602;2024-01-06T12:02:32;5.30;;;1.08;;
59960;SDS011;55902;-37.980;-63.602;2024-01-06T12:05:00;2.85;;;0.88;;
59960;SDS011;55902;-37.980;-63.602;2024-01-06T12:07:27;2.90;;;1.00;;
59960;SDS011;55902;-37.980;-63.602;2024-01-06T12:10:00;3.28;;;1.23;;
59960;SDS011;55902;-37.980;-63.602;2024-01-06T12:12:28;2.58;;;0.80;;
59960;SDS011;55902;-37.980;-63.602;2024-01-06T12:14:55;5.15;;;1.10;;
59960;SDS011;55902;-37.980;-63.602;2024-01-06T12:17:22;1.95;;;0.82;;
59960;SDS011;55902;-37.980;-63.602;2024-01-06T12:19:53;2.15;;;0.80;;
59960;SDS011;55902;-37.980;-63.602;2024-01-06T12:22:20;4.25;;;0.82;;
59960;SDS011;55902;-37.980;-63.602;2024-01-06T12:24:50;4.07;;;1.05;;
59960;SDS011;55902;-37.980;-63.602;2024-01-06T12:27:17;2.90;;;0.90;;
59960;SDS011;55902;-37.980;-63.602;2024-01-06T12:29:46;1.80;;;1.20;;
59960;SDS011;55902;-37.980;-63.602;2024-01-06T12:32:13;3.75;;;0.90;;
59960;SDS011;55902;-37.980;-63.602;2024-01-06T12:34:41;2.70;;;0.98;;
59960;SDS011;55902;-37.980;-63.602;2024-01-06T12:37:08;3.10;;;0.90;;
59960;SDS011;55902;-37.980;-63.602;2024-01-06T12:39:35;3.55;;;0.95;;
59960;SDS011;55902;-37.980;-63.602;2024-01-06T12:45:27;2.65;;;0.80;;
59960;SDS011;55902;-37.980;-63.602;2024-01-06T12:47:54;2.00;;;0.70;;
59960;SDS011;55902;-37.980;-63.602;2024-01-06T12:50:21;1.83;;;0.80;;
59960;SDS011;55902;-37.980;-63.602;2024-01-06T12:52:48;2.30;;;0.80;;
59960;SDS011;55902;-37.980;-63.602;2024-01-06T12:55:15;1.77;;;0.73;;
59960;SDS011;55902;-37.980;-63.602;2024-01-06T12:57:42;2.45;;;0.80;;
59960;SDS011;55902;-37.980;-63.602;2024-01-06T13:00:11;1.83;;;0.60;;
59960;SDS011;55902;-37.980;-63.602;2024-01-06T13:02:38;2.53;;;0.80;;
59960;SDS011;55902;-37.980;-63.602;2024-01-06T13:05:05;2.05;;;0.80;;
59960;SDS011;55902;-37.980;-63.602;2024-01-06T13:07:34;3.50;;;0.82;;
59960;SDS011;55902;-37.980;-63.602;2024-01-06T13:10:02;1.92;;;0.80;;
59960;SDS011;55902;-37.980;-63.602;2024-01-06T13:12:29;3.92;;;0.80;;
59960;SDS011;55902;-37.980;-63.602;2024-01-06T13:14:56;2.60;;;0.85;;
59960;SDS011;55902;-37.980;-63.602;2024-01-06T13:17:24;2.15;;;0.70;;
59960;SDS011;55902;-37.980;-63.602;2024-01-06T13:19:51;1.88;;;0.80;;
59960;SDS011;55902;-37.980;-63.602;2024-01-06T13:22:18;1.95;;;0.80;;
59960;SDS011;55902;-37.980;-63.602;2024-01-06T13:24:47;2.90;;;0.90;;
59960;SDS011;55902;-37.980;-63.602;2024-01-06T13:27:14;2.40;;;1.00;;
59960;SDS011;55902;-37.980;-63.602;2024-01-06T13:29:41;2.58;;;0.70;;
59960;SDS011;55902;-37.980;-63.602;2024-01-06T13:32:11;2.72;;;0.80;;
59960;SDS011;55902;-37.980;-63.602;2024-01-06T13:34:39;1.95;;;0.80;;
59960;SDS011;55902;-37.980;-63.602;2024-01-06T13:37:06;2.78;;;0.80;;
59960;SDS011;55902;-37.980;-63.602;2024-01-06T13:39:33;2.05;;;0.85;;
59960;SDS011;55902;-37.980;-63.602;2024-01-06T13:42:01;2.83;;;0.80;;
59960;SDS011;55902;-37.980;-63.602;2024-01-06T13:44:31;1.77;;;0.80;;
59960;SDS011;55902;-37.980;-63.602;2024-01-06T13:46:59;3.20;;;0.80;;
59960;SDS011;55902;-37.980;-63.602;2024-01-06T13:49:26;2.00;;;0.70;;
59960;SDS011;55902;-37.980;-63.602;2024-01-06T13:51:53;1.58;;;0.70;;
59960;SDS011;55902;-37.980;-63.602;2024-01-06T13:54:20;2.05;;;0.80;;
59960;SDS011;55902;-37.980;-63.602;2024-01-06T13:56:47;4.50;;;1.00;;
59960;SDS011;55902;-37.980;-63.602;2024-01-06T13:59:14;2.40;;;0.85;;
59960;SDS011;55902;-37.980;-63.602;2024-01-06T14:01:42;2.85;;;0.80;;
59960;SDS011;55902;-37.980;-63.602;2024-01-06T14:04:09;1.60;;;0.60;;
59960;SDS011;55902;-37.980;-63.602;2024-01-06T14:06:36;6.60;;;1.20;;
59960;SDS011;55902;-37.980;-63.602;2024-01-06T14:09:05;3.25;;;0.85;;
59960;SDS011;55902;-37.980;-63.602;2024-01-06T14:11:32;3.30;;;0.77;;
59960;SDS011;55902;-37.980;-63.602;2024-01-06T14:13:59;4.13;;;0.90;;
59960;SDS011;55902;-37.980;-63.602;2024-01-06T14:16:27;3.90;;;1.00;;
59960;SDS011;55902;-37.980;-63.602;2024-01-06T14:18:54;2.17;;;0.80;;
59960;SDS011;55902;-37.980;-63.602;2024-01-06T14:21:20;2.38;;;0.88;;
59960;SDS011;55902;-37.980;-63.602;2024-01-06T14:23:48;2.58;;;0.88;;
59960;SDS011;55902;-37.980;-63.602;2024-01-06T14:26:18;2.90;;;0.70;;
59960;SDS011;55902;-37.980;-63.602;2024-01-06T14:28:46;1.75;;;0.73;;
59960;SDS011;55902;-37.980;-63.602;2024-01-06T14:31:13;2.78;;;0.80;;
59960;SDS011;55902;-37.980;-63.602;2024-01-06T14:33:40;2.13;;;0.90;;
59960;SDS011;55902;-37.980;-63.602;2024-01-06T14:36:07;2.65;;;0.80;;
59960;SDS011;55902;-37.980;-63.602;2024-01-06T14:38:34;3.30;;;0.70;;
59960;SDS011;55902;-37.980;-63.602;2024-01-06T14:41:01;1.45;;;0.70;;
59960;SDS011;55902;-37.980;-63.602;2024-01-06T14:49:45;3.47;;;0.70;;
59960;SDS011;55902;-37.980;-63.602;2024-01-06T14:52:12;2.45;;;0.70;;
59960;SDS011;55902;-37.980;-63.602;2024-01-06T14:54:41;1.35;;;0.60;;
59960;SDS011;55902;-37.980;-63.602;2024-01-06T14:57:09;2.67;;;0.95;;
59960;SDS011;55902;-37.980;-63.602;2024-01-06T14:59:36;1.92;;;0.85;;
59960;SDS011;55902;-37.980;-63.602;2024-01-06T15:02:04;1.50;;;0.70;;
59960;SDS011;55902;-37.980;-63.602;2024-01-06T15:04:32;2.00;;;0.60;;
59960;SDS011;55902;-37.980;-63.602;2024-01-06T15:06:59;4.03;;;0.70;;
59960;SDS011;55902;-37.980;-63.602;2024-01-06T15:09:26;2.08;;;0.70;;
59960;SDS011;55902;-37.980;-63.602;2024-01-06T15:11:54;1.40;;;0.60;;
59960;SDS011;55902;-37.980;-63.602;2024-01-06T15:14:21;2.05;;;0.80;;
59960;SDS011;55902;-37.980;-63.602;2024-01-06T15:16:48;1.48;;;0.60;;
59960;SDS011;55902;-37.980;-63.602;2024-01-06T15:19:15;1.80;;;0.70;;
59960;SDS011;55902;-37.980;-63.602;2024-01-06T15:21:41;1.92;;;0.60;;
59960;SDS011;55902;-37.980;-63.602;2024-01-06T15:24:09;2.63;;;0.75;;
59960;SDS011;55902;-37.980;-63.602;2024-01-06T15:26:37;2.63;;;0.60;;
59960;SDS011;55902;-37.980;-63.602;2024-01-06T15:29:07;1.80;;;0.70;;
59960;SDS011;55902;-37.980;-63.602;2024-01-06T15:31:34;2.70;;;0.80;;
59960;SDS011;55902;-37.980;-63.602;2024-01-06T15:34:05;1.00;;;0.50;;
59960;SDS011;55902;-37.980;-63.602;2024-01-06T15:36:32;2.08;;;0.50;;